createdAt,value
2022-10-21T00:00:11.472Z,13.62
2022-10-21T00:03:11.221Z,13.85
2022-10-21T00:06:08.614Z,14.14
2022-10-21T00:09:05.452Z,14.20
2022-10-21T00:12:02.176Z,14.15
2022-10-21T00:14:59.535Z,14.09
2022-10-21T00:17:56.550Z,13.92
2022-10-21T00:20:53.381Z,13.81
2022-10-21T00:23:50.464Z,13.62
2022-10-21T00:26:49.808Z,13.60
2022-10-21T00:29:46.676Z,13.66
2022-10-21T00:32:43.636Z,13.62
2022-10-21T00:35:40.858Z,13.61
2022-10-21T00:38:38.477Z,13.59
2022-10-21T00:41:35.505Z,13.70
2022-10-21T00:44:32.446Z,13.85
2022-10-21T00:47:29.429Z,14.05
2022-10-21T00:50:31.231Z,14.07
2022-10-21T00:53:28.327Z,14.07
2022-10-21T00:56:27.260Z,13.90
2022-10-21T00:59:26.637Z,13.72
2022-10-21T01:02:23.393Z,13.56
2022-10-21T01:05:20.310Z,13.52
2022-10-21T01:08:17.499Z,13.60
2022-10-21T01:11:16.047Z,13.70
2022-10-21T01:14:32.456Z,13.89
2022-10-21T01:17:45.974Z,13.96
2022-10-21T01:21:07.612Z,14.26
2022-10-21T01:25:09.023Z,14.37
2022-10-21T01:28:09.483Z,14.33
2022-10-21T01:31:32.413Z,14.28
2022-10-21T01:34:39.330Z,14.07
2022-10-21T01:38:01.176Z,13.78
2022-10-21T01:41:13.114Z,13.60
2022-10-21T01:44:30.013Z,13.85
2022-10-21T01:47:33.187Z,14.00
2022-10-21T01:50:31.956Z,14.09
2022-10-21T01:53:30.730Z,14.32
2022-10-21T01:56:27.616Z,14.48
2022-10-21T01:59:24.847Z,14.38
2022-10-21T02:02:22.458Z,14.17
2022-10-21T02:05:21.641Z,14.12
2022-10-21T02:08:18.384Z,14.14
2022-10-21T02:11:15.413Z,14.16
2022-10-21T02:14:19.882Z,14.16
2022-10-21T02:17:18.622Z,14.21
2022-10-21T02:20:15.431Z,14.14
2022-10-21T02:23:13.617Z,14.05
2022-10-21T02:26:10.431Z,13.90
2022-10-21T02:29:07.585Z,13.94
2022-10-21T02:32:26.029Z,14.18
2022-10-21T02:35:33.174Z,14.07
2022-10-21T02:38:37.868Z,13.96
2022-10-21T02:41:34.439Z,13.85
2022-10-21T02:44:31.432Z,13.86
2022-10-21T02:47:29.358Z,13.81
2022-10-21T02:50:26.523Z,13.68
2022-10-21T02:53:23.688Z,13.63
2022-10-21T02:56:20.339Z,13.71
2022-10-21T02:59:17.584Z,13.79
2022-10-21T03:02:14.452Z,13.86
2022-10-21T03:05:12.965Z,13.92
2022-10-21T03:08:10.808Z,13.91
2022-10-21T03:11:07.426Z,13.96
2022-10-21T03:14:04.667Z,14.09
2022-10-21T03:17:01.710Z,14.24
2022-10-21T03:19:58.548Z,14.43
2022-10-21T03:22:55.308Z,14.53
2022-10-21T03:25:52.813Z,14.51
2022-10-21T03:28:50.687Z,14.18
2022-10-21T03:31:47.529Z,14.10
2022-10-21T03:34:44.506Z,14.06
2022-10-21T03:37:41.428Z,14.02
2022-10-21T03:40:38.751Z,14.31
2022-10-21T03:43:35.611Z,14.30
2022-10-21T03:46:32.749Z,14.24
2022-10-21T03:49:29.447Z,14.34
2022-10-21T03:52:26.366Z,14.15
2022-10-21T03:55:25.287Z,14.11
2022-10-21T03:58:22.988Z,14.10
2022-10-21T04:01:19.480Z,13.98
2022-10-21T04:04:16.760Z,13.83
2022-10-21T04:07:13.650Z,13.86
2022-10-21T04:10:10.635Z,13.94
2022-10-21T04:13:07.650Z,13.98
2022-10-21T04:16:05.741Z,13.93
2022-10-21T04:19:02.441Z,13.82
2022-10-21T04:21:59.410Z,13.84
2022-10-21T04:24:59.695Z,13.90
2022-10-21T04:27:59.793Z,13.96
2022-10-21T04:30:56.669Z,14.05
2022-10-21T04:33:53.583Z,13.99
2022-10-21T04:36:50.764Z,13.91
2022-10-21T04:39:47.558Z,13.84
2022-10-21T04:42:48.561Z,13.82
2022-10-21T04:45:45.604Z,13.77
2022-10-21T04:48:43.279Z,13.71
2022-10-21T04:51:40.361Z,13.49
2022-10-21T04:54:37.756Z,13.24
2022-10-21T04:57:34.297Z,13.26
2022-10-21T05:00:31.547Z,13.45
2022-10-21T05:03:28.549Z,13.58
2022-10-21T05:06:25.598Z,13.59
2022-10-21T05:09:22.650Z,13.54
2022-10-21T05:12:20.018Z,13.66
2022-10-21T05:15:17.849Z,13.73
2022-10-21T05:18:14.661Z,13.67
2022-10-21T05:21:11.809Z,13.58
2022-10-21T05:24:08.865Z,13.63
2022-10-21T05:27:05.583Z,13.67
2022-10-21T05:30:02.609Z,13.44
2022-10-21T05:32:59.547Z,13.27
2022-10-21T05:36:01.830Z,13.10
2022-10-21T05:38:58.693Z,12.87
2022-10-21T05:41:55.955Z,13.07
2022-10-21T05:44:52.482Z,13.40
2022-10-21T05:47:49.653Z,13.47
2022-10-21T05:50:47.239Z,13.52
2022-10-21T05:53:44.912Z,13.51
2022-10-21T05:56:42.646Z,13.64
2022-10-21T05:59:39.638Z,13.59
2022-10-21T06:02:36.786Z,13.47
2022-10-21T06:05:33.624Z,13.43
2022-10-21T06:08:31.121Z,13.32
2022-10-21T06:11:28.994Z,13.17
2022-10-21T06:14:26.469Z,13.08
2022-10-21T06:17:23.653Z,12.94
2022-10-21T06:20:21.056Z,13.06
2022-10-21T06:23:17.782Z,13.16
2022-10-21T06:26:15.679Z,12.89
2022-10-21T06:29:14.952Z,12.71
2022-10-21T06:32:12.338Z,12.81
2022-10-21T06:35:10.003Z,12.92
2022-10-21T06:38:07.090Z,12.96
2022-10-21T06:41:12.140Z,13.11
2022-10-21T06:44:10.674Z,13.38
2022-10-21T06:47:08.071Z,13.24
2022-10-21T06:50:05.148Z,13.09
2022-10-21T06:53:02.652Z,12.98
2022-10-21T06:56:10.628Z,13.05
2022-10-21T06:59:07.773Z,12.85
2022-10-21T07:02:05.099Z,12.76
2022-10-21T07:05:01.965Z,12.64
2022-10-21T07:07:59.506Z,12.69
2022-10-21T07:10:56.793Z,12.70
2022-10-21T07:13:53.719Z,12.82
2022-10-21T07:16:51.708Z,12.89
2022-10-21T07:19:49.155Z,12.84
2022-10-21T07:22:46.882Z,12.90
2022-10-21T07:25:43.816Z,12.99
2022-10-21T07:28:42.177Z,13.08
2022-10-21T07:31:40.045Z,13.18
2022-10-21T07:34:36.813Z,13.31
2022-10-21T07:37:33.632Z,13.52
2022-10-21T07:40:31.013Z,13.57
2022-10-21T07:43:27.944Z,13.69
2022-10-21T07:46:24.821Z,13.85
2022-10-21T07:49:21.665Z,13.82
2022-10-21T07:52:19.063Z,13.67
2022-10-21T07:55:16.716Z,13.67
2022-10-21T07:58:13.785Z,13.76
2022-10-21T08:01:11.066Z,13.90
2022-10-21T08:04:07.613Z,14.02
2022-10-21T08:07:05.040Z,14.17
2022-10-21T08:10:02.098Z,14.22
2022-10-21T08:12:58.993Z,14.29
2022-10-21T08:15:57.002Z,14.37
2022-10-21T08:18:54.143Z,14.35
2022-10-21T08:21:51.626Z,14.38
2022-10-21T08:24:49.027Z,14.64
2022-10-21T08:27:46.032Z,14.77
2022-10-21T08:30:43.608Z,14.94
2022-10-21T08:33:40.770Z,15.13
2022-10-21T08:36:37.987Z,15.29
2022-10-21T08:39:34.622Z,15.22
2022-10-21T08:42:32.073Z,15.24
2022-10-21T08:45:44.105Z,15.35
2022-10-21T08:48:48.760Z,15.51
2022-10-21T08:51:50.574Z,15.64
2022-10-21T08:54:52.861Z,15.79
2022-10-21T08:57:50.391Z,15.76
2022-10-21T09:00:51.098Z,15.94
2022-10-21T09:04:00.034Z,16.06
2022-10-21T09:07:15.246Z,16.12
2022-10-21T09:10:35.912Z,16.10
2022-10-21T09:13:50.363Z,16.27
2022-10-21T09:17:13.384Z,16.35
2022-10-21T09:20:34.411Z,16.37
2022-10-21T09:26:34.727Z,16.33
2022-10-21T09:29:37.453Z,16.29
2022-10-21T09:32:37.979Z,16.43
2022-10-21T09:35:48.248Z,16.44
2022-10-21T09:39:05.658Z,16.64
2022-10-21T09:42:07.342Z,17.07
2022-10-21T09:45:33.967Z,17.26
2022-10-21T09:48:53.952Z,17.23
2022-10-21T09:51:56.633Z,17.04
2022-10-21T09:54:53.937Z,16.86
2022-10-21T09:57:56.242Z,16.87
2022-10-21T10:00:53.004Z,16.87
2022-10-21T10:03:51.149Z,17.24
2022-10-21T10:06:47.888Z,17.46
2022-10-21T10:09:48.043Z,17.40
2022-10-21T10:12:44.722Z,17.54
2022-10-21T10:15:43.120Z,17.69
2022-10-21T10:18:40.312Z,17.73
2022-10-21T10:21:36.927Z,17.92
2022-10-21T10:24:33.799Z,18.16
2022-10-21T10:27:30.759Z,18.07
2022-10-21T10:30:38.995Z,18.08
2022-10-21T10:33:36.041Z,17.66
2022-10-21T10:36:42.339Z,17.38
2022-10-21T10:39:39.247Z,17.34
2022-10-21T10:42:38.016Z,17.48
2022-10-21T10:45:34.940Z,17.58
2022-10-21T10:48:42.544Z,17.54
2022-10-21T10:51:42.795Z,17.72
2022-10-21T10:54:41.042Z,17.81
2022-10-21T10:57:52.003Z,17.89
2022-10-21T11:00:57.666Z,18.07
2022-10-21T11:03:57.690Z,18.12
2022-10-21T11:06:58.665Z,18.27
2022-10-21T11:09:59.076Z,18.64
2022-10-21T11:12:56.015Z,19.27
2022-10-21T11:16:50.530Z,19.11
2022-10-21T11:20:18.846Z,18.57
2022-10-21T11:23:47.484Z,18.18
2022-10-21T11:27:00.308Z,18.17
2022-10-21T11:30:03.488Z,18.32
2022-10-21T11:33:01.134Z,18.47
2022-10-21T11:36:36.508Z,18.47
2022-10-21T11:39:42.970Z,18.31
2022-10-21T11:42:44.223Z,18.25
2022-10-21T11:46:05.130Z,17.85
2022-10-21T11:49:37.218Z,18.12
2022-10-21T11:53:14.312Z,18.40
2022-10-21T11:56:19.489Z,18.50
2022-10-21T11:59:43.408Z,18.60
2022-10-21T12:02:45.775Z,18.51
2022-10-21T12:05:51.266Z,18.24
2022-10-21T12:08:55.877Z,18.04
2022-10-21T12:11:57.076Z,18.10
2022-10-21T12:14:58.858Z,18.17
2022-10-21T12:17:56.391Z,18.34
2022-10-21T12:20:54.306Z,18.24
2022-10-21T12:23:55.021Z,18.10
2022-10-21T12:26:56.781Z,18.05
2022-10-21T12:29:57.030Z,18.10
2022-10-21T12:33:15.183Z,18.17
2022-10-21T12:36:14.718Z,18.14
2022-10-21T12:39:16.597Z,18.35
2022-10-21T12:42:16.003Z,18.53
2022-10-21T12:45:45.677Z,18.59
2022-10-21T12:48:46.167Z,18.56
2022-10-21T12:51:47.622Z,18.19
2022-10-21T12:55:00.691Z,17.98
2022-10-21T12:58:00.149Z,18.20
2022-10-21T13:00:57.791Z,18.51
2022-10-21T13:03:55.817Z,18.65
2022-10-21T13:06:54.592Z,18.59
2022-10-21T13:09:52.102Z,18.58
2022-10-21T13:12:49.081Z,18.60
2022-10-21T13:15:46.638Z,18.53
2022-10-21T13:18:53.934Z,18.48
2022-10-21T13:21:52.403Z,18.39
2022-10-21T13:24:49.350Z,18.48
2022-10-21T13:27:51.048Z,18.56
2022-10-21T13:30:48.105Z,18.52
2022-10-21T13:33:52.061Z,18.57
2022-10-21T13:36:50.551Z,18.57
2022-10-21T13:39:48.509Z,18.62
2022-10-21T13:42:48.389Z,18.75
2022-10-21T13:45:49.748Z,18.89
2022-10-21T13:48:48.267Z,18.96
2022-10-21T13:51:46.056Z,19.05
2022-10-21T13:57:40.760Z,18.66
2022-10-21T14:00:37.953Z,18.66
2022-10-21T14:03:35.621Z,18.62
2022-10-21T14:06:40.063Z,18.73
2022-10-21T14:09:42.421Z,18.66
2022-10-21T14:12:41.563Z,18.65
2022-10-21T14:15:43.865Z,18.77
2022-10-21T14:18:44.437Z,18.71
2022-10-21T14:21:44.024Z,18.56
2022-10-21T14:24:42.391Z,18.73
2022-10-21T14:27:39.216Z,18.82
2022-10-21T14:30:37.171Z,18.55
2022-10-21T14:33:34.474Z,18.53
2022-10-21T14:36:31.967Z,18.37
2022-10-21T14:39:28.868Z,18.60
2022-10-21T14:42:26.499Z,18.73
2022-10-21T14:45:28.465Z,18.89
2022-10-21T14:48:32.593Z,18.68
2022-10-21T14:51:35.536Z,18.75
2022-10-21T14:54:39.012Z,18.72
2022-10-21T14:58:03.678Z,18.43
2022-10-21T15:01:03.187Z,18.17
2022-10-21T15:04:00.942Z,18.23
2022-10-21T15:07:00.152Z,18.05
2022-10-21T15:10:03.844Z,18.23
2022-10-21T15:13:00.943Z,18.12
2022-10-21T15:15:59.105Z,18.10
2022-10-21T15:18:56.449Z,17.87
2022-10-21T15:22:00.761Z,17.71
2022-10-21T15:25:00.625Z,17.78
2022-10-21T15:28:00.071Z,17.76
2022-10-21T15:30:57.093Z,17.64
2022-10-21T15:33:56.421Z,17.61
2022-10-21T15:36:53.261Z,17.57
2022-10-21T15:39:50.145Z,17.54
2022-10-21T15:42:47.213Z,17.48
2022-10-21T15:45:44.123Z,17.30
2022-10-21T15:48:41.096Z,17.24
2022-10-21T15:51:38.019Z,17.22
2022-10-21T15:54:35.475Z,17.23
2022-10-21T15:57:32.281Z,17.22
2022-10-21T16:00:29.140Z,17.23
2022-10-21T16:03:28.157Z,17.22
2022-10-21T16:06:25.212Z,17.25
2022-10-21T16:09:24.840Z,17.27
2022-10-21T16:12:22.277Z,17.24
2022-10-21T16:15:19.401Z,17.22
2022-10-21T16:18:16.966Z,17.13
2022-10-21T16:21:14.961Z,17.09
2022-10-21T16:24:12.277Z,17.05
2022-10-21T16:27:12.867Z,17.09
2022-10-21T16:30:17.172Z,17.08
2022-10-21T16:33:14.030Z,17.12
2022-10-21T16:36:22.454Z,17.07
2022-10-21T16:39:20.477Z,17.08
2022-10-21T16:42:17.128Z,17.08
2022-10-21T16:45:14.064Z,17.20
2022-10-21T16:48:11.507Z,17.09
2022-10-21T16:51:09.256Z,17.20
2022-10-21T16:54:06.162Z,17.17
2022-10-21T16:57:06.936Z,17.10
2022-10-21T17:00:04.805Z,16.99
2022-10-21T17:03:02.186Z,17.03
2022-10-21T17:05:59.142Z,17.00
2022-10-21T17:08:56.354Z,16.98
2022-10-21T17:11:53.100Z,17.05
2022-10-21T17:14:49.931Z,16.94
2022-10-21T17:17:47.227Z,16.94
2022-10-21T17:20:44.129Z,16.94
2022-10-21T17:23:41.529Z,16.88
2022-10-21T17:26:38.625Z,17.01
2022-10-21T17:29:35.629Z,17.04
2022-10-21T17:32:32.362Z,17.01
2022-10-21T17:35:29.227Z,17.12
2022-10-21T17:38:26.415Z,17.50
2022-10-21T17:41:23.501Z,17.72
2022-10-21T17:44:20.151Z,17.76
2022-10-21T17:47:17.651Z,17.63
2022-10-21T17:50:14.168Z,17.42
2022-10-21T17:53:11.203Z,17.37
2022-10-21T17:56:08.260Z,17.35
2022-10-21T17:59:05.304Z,17.35
2022-10-21T18:02:02.033Z,17.23
2022-10-21T18:05:00.808Z,17.20
2022-10-21T18:07:58.541Z,17.08
2022-10-21T18:10:58.351Z,17.05
2022-10-21T18:13:55.397Z,17.08
2022-10-21T18:16:53.304Z,17.04
2022-10-21T18:19:51.249Z,16.89
2022-10-21T18:22:48.377Z,16.87
2022-10-21T18:25:45.195Z,16.93
2022-10-21T18:28:42.410Z,16.91
2022-10-21T18:31:39.690Z,16.95
2022-10-21T18:34:37.520Z,17.00
2022-10-21T18:37:35.080Z,16.97
2022-10-21T18:40:33.591Z,16.99
2022-10-21T18:43:30.153Z,16.95
2022-10-21T18:46:28.635Z,16.91
2022-10-21T18:49:25.579Z,16.80
2022-10-21T18:52:22.526Z,16.82
2022-10-21T18:55:19.561Z,16.87
2022-10-21T18:58:16.309Z,16.80
2022-10-21T19:01:15.147Z,16.77
2022-10-21T19:07:10.572Z,16.79
2022-10-21T19:10:08.018Z,16.92
2022-10-21T19:13:05.355Z,17.03
2022-10-21T19:16:02.236Z,16.97
2022-10-21T19:18:59.804Z,16.94
2022-10-21T19:21:57.489Z,16.84
2022-10-21T19:24:54.285Z,16.82
2022-10-21T19:27:51.496Z,16.81
2022-10-21T19:30:48.285Z,16.78
2022-10-21T19:33:45.430Z,16.76
2022-10-21T19:36:42.640Z,16.87
2022-10-21T19:39:40.215Z,16.88
2022-10-21T19:42:38.064Z,16.91
2022-10-21T19:45:35.826Z,16.79
2022-10-21T19:48:35.505Z,16.72
2022-10-21T19:51:32.313Z,16.94
2022-10-21T19:54:29.205Z,16.90
2022-10-21T19:57:26.435Z,16.79
2022-10-21T20:00:23.371Z,16.63
2022-10-21T20:03:20.168Z,16.41
2022-10-21T20:06:22.090Z,16.31
2022-10-21T20:09:19.408Z,16.27
2022-10-21T20:12:16.751Z,16.32
2022-10-21T20:15:13.300Z,16.28
2022-10-21T20:18:10.182Z,16.32
2022-10-21T20:21:07.751Z,16.33
2022-10-21T20:24:04.920Z,16.29
2022-10-21T20:27:02.485Z,16.27
2022-10-21T20:29:59.683Z,16.22
2022-10-21T20:32:56.644Z,16.25
2022-10-21T20:35:53.485Z,16.25
2022-10-21T20:38:50.659Z,16.29
2022-10-21T20:41:47.391Z,16.20
2022-10-21T20:47:46.438Z,16.29
2022-10-21T20:50:43.228Z,16.25
2022-10-21T20:53:44.606Z,16.26
2022-10-21T20:56:41.812Z,16.29
2022-10-21T20:59:38.341Z,16.25
2022-10-21T21:02:36.920Z,16.31
2022-10-21T21:05:38.140Z,16.35
2022-10-21T21:08:37.097Z,16.29
2022-10-21T21:11:34.436Z,16.51
2022-10-21T21:14:31.619Z,16.55
2022-10-21T21:17:28.478Z,16.44
2022-10-21T21:20:25.453Z,16.24
2022-10-21T21:23:22.393Z,16.04
2022-10-21T21:26:23.457Z,15.97
2022-10-21T21:29:20.835Z,15.85
2022-10-21T21:32:19.129Z,15.92
2022-10-21T21:35:16.818Z,15.87
2022-10-21T21:38:13.597Z,15.92
2022-10-21T21:41:10.909Z,16.08
2022-10-21T21:44:09.325Z,16.26
2022-10-21T21:47:06.812Z,16.35
2022-10-21T21:50:03.592Z,16.27
2022-10-21T21:53:00.715Z,16.16
2022-10-21T21:56:03.342Z,16.11
2022-10-21T21:59:00.401Z,16.01
2022-10-21T22:01:57.421Z,16.02
2022-10-21T22:04:54.763Z,16.06
2022-10-21T22:07:51.762Z,16.09
2022-10-21T22:10:49.715Z,16.02
2022-10-21T22:13:46.714Z,15.82
2022-10-21T22:16:43.457Z,15.75
2022-10-21T22:19:40.347Z,15.71
2022-10-21T22:22:37.366Z,15.69
2022-10-21T22:25:34.588Z,15.68
2022-10-21T22:28:31.635Z,15.68
2022-10-21T22:31:30.523Z,15.66
2022-10-21T22:34:28.530Z,15.93
2022-10-21T22:37:25.380Z,16.04
2022-10-21T22:40:22.107Z,16.05
2022-10-21T22:43:19.536Z,16.14
2022-10-21T22:49:33.658Z,15.80
2022-10-21T22:52:30.383Z,15.65
2022-10-21T22:55:27.426Z,15.60
2022-10-21T22:58:24.350Z,15.72
2022-10-21T23:01:21.826Z,15.79
2022-10-21T23:04:19.365Z,15.71
2022-10-21T23:07:16.805Z,15.80
2022-10-21T23:10:13.941Z,16.04
2022-10-21T23:13:11.284Z,16.09
2022-10-21T23:16:08.743Z,16.07
2022-10-21T23:19:06.990Z,16.00
2022-10-21T23:22:04.915Z,16.22
2022-10-21T23:25:01.701Z,16.47
2022-10-21T23:27:58.416Z,16.19
2022-10-21T23:30:56.133Z,15.99
2022-10-21T23:33:53.668Z,16.02
2022-10-21T23:36:50.551Z,16.01
2022-10-21T23:39:47.287Z,15.99
2022-10-21T23:42:44.770Z,16.16
2022-10-21T23:45:41.710Z,16.10
2022-10-21T23:48:38.515Z,16.01
2022-10-21T23:51:35.573Z,15.79
2022-10-21T23:54:32.778Z,15.77
2022-10-21T23:57:29.552Z,16.15
